sensor_id;sensor_type;location;lat;lon;timestamp;P1;durP1;ratioP1;P2;durP2;ratioP2
7545;SDS011;3814;51.454;12.616;2023-05-09T00:01:04;12.85;;;6.72;;
7545;SDS011;3814;51.454;12.616;2023-05-09T00:03:30;10.52;;;6.40;;
7545;SDS011;3814;51.454;12.616;2023-05-09T00:05:57;15.18;;;7.10;;
7545;SDS011;3814;51.454;12.616;2023-05-09T00:08:22;12.70;;;7.30;;
7545;SDS011;3814;51.454;12.616;2023-05-09T00:10:47;10.63;;;6.55;;
7545;SDS011;3814;51.454;12.616;2023-05-09T00:13:13;11.35;;;6.55;;
7545;SDS011;3814;51.454;12.616;2023-05-09T00:15:38;12.23;;;6.72;;
7545;SDS011;3814;51.454;12.616;2023-05-09T00:18:03;11.82;;;6.97;;
7545;SDS011;3814;51.454;12.616;2023-05-09T00:20:28;10.65;;;6.32;;
7545;SDS011;3814;51.454;12.616;2023-05-09T00:22:54;14.18;;;6.95;;
7545;SDS011;3814;51.454;12.616;2023-05-09T00:25:20;12.73;;;6.53;;
7545;SDS011;3814;51.454;12.616;2023-05-09T00:27:45;11.68;;;6.80;;
7545;SDS011;3814;51.454;12.616;2023-05-09T00:30:10;11.88;;;6.75;;
7545;SDS011;3814;51.454;12.616;2023-05-09T00:32:36;13.95;;;7.30;;
7545;SDS011;3814;51.454;12.616;2023-05-09T00:35:01;13.48;;;7.18;;
7545;SDS011;3814;51.454;12.616;2023-05-09T00:37:27;14.57;;;7.35;;
7545;SDS011;3814;51.454;12.616;2023-05-09T00:39:54;11.80;;;6.55;;
7545;SDS011;3814;51.454;12.616;2023-05-09T00:42:19;12.13;;;6.95;;
7545;SDS011;3814;51.454;12.616;2023-05-09T00:44:45;14.77;;;7.88;;
7545;SDS011;3814;51.454;12.616;2023-05-09T00:47:10;12.30;;;7.25;;
7545;SDS011;3814;51.454;12.616;2023-05-09T00:49:35;13.77;;;7.00;;
7545;SDS011;3814;51.454;12.616;2023-05-09T00:52:01;16.08;;;7.43;;
7545;SDS011;3814;51.454;12.616;2023-05-09T00:54:26;16.15;;;7.50;;
7545;SDS011;3814;51.454;12.616;2023-05-09T00:56:52;15.23;;;6.55;;
7545;SDS011;3814;51.454;12.616;2023-05-09T00:59:17;13.77;;;6.47;;
7545;SDS011;3814;51.454;12.616;2023-05-09T01:01:43;12.20;;;7.03;;
7545;SDS011;3814;51.454;12.616;2023-05-09T01:04:09;13.40;;;6.80;;
7545;SDS011;3814;51.454;12.616;2023-05-09T01:09:44;12.48;;;7.38;;
7545;SDS011;3814;51.454;12.616;2023-05-09T01:12:52;11.52;;;6.93;;
7545;SDS011;3814;51.454;12.616;2023-05-09T01:17:57;12.05;;;6.30;;
7545;SDS011;3814;51.454;12.616;2023-05-09T01:20:28;11.85;;;6.00;;
7545;SDS011;3814;51.454;12.616;2023-05-09T01:23:11;13.32;;;6.97;;
7545;SDS011;3814;51.454;12.616;2023-05-09T01:26:00;11.82;;;6.45;;
7545;SDS011;3814;51.454;12.616;2023-05-09T01:28:33;13.82;;;6.85;;
7545;SDS011;3814;51.454;12.616;2023-05-09T01:31:02;12.00;;;6.32;;
7545;SDS011;3814;51.454;12.616;2023-05-09T01:33:28;17.77;;;6.72;;
7545;SDS011;3814;51.454;12.616;2023-05-09T01:36:03;13.77;;;7.40;;
7545;SDS011;3814;51.454;12.616;2023-05-09T01:38:31;10.25;;;5.90;;
7545;SDS011;3814;51.454;12.616;2023-05-09T01:40:56;11.18;;;6.30;;
7545;SDS011;3814;51.454;12.616;2023-05-09T01:43:24;12.48;;;7.00;;
7545;SDS011;3814;51.454;12.616;2023-05-09T01:45:50;12.50;;;6.80;;
7545;SDS011;3814;51.454;12.616;2023-05-09T01:48:16;13.45;;;6.57;;
7545;SDS011;3814;51.454;12.616;2023-05-09T01:50:42;12.93;;;7.03;;
7545;SDS011;3814;51.454;12.616;2023-05-09T01:53:09;11.88;;;6.60;;
7545;SDS011;3814;51.454;12.616;2023-05-09T01:55:35;11.20;;;6.25;;
7545;SDS011;3814;51.454;12.616;2023-05-09T01:58:02;11.65;;;7.07;;
7545;SDS011;3814;51.454;12.616;2023-05-09T02:00:29;16.00;;;6.90;;
7545;SDS011;3814;51.454;12.616;2023-05-09T02:02:56;11.57;;;6.70;;
7545;SDS011;3814;51.454;12.616;2023-05-09T02:05:22;12.57;;;6.45;;
7545;SDS011;3814;51.454;12.616;2023-05-09T02:07:50;13.00;;;6.20;;
7545;SDS011;3814;51.454;12.616;2023-05-09T02:10:16;14.40;;;7.28;;
7545;SDS011;3814;51.454;12.616;2023-05-09T02:12:42;11.48;;;6.25;;
7545;SDS011;3814;51.454;12.616;2023-05-09T02:15:07;12.43;;;7.35;;
7545;SDS011;3814;51.454;12.616;2023-05-09T02:17:33;12.23;;;6.07;;
7545;SDS011;3814;51.454;12.616;2023-05-09T02:19:58;12.23;;;6.75;;
7545;SDS011;3814;51.454;12.616;2023-05-09T02:22:23;13.50;;;6.88;;
7545;SDS011;3814;51.454;12.616;2023-05-09T02:24:49;12.05;;;6.32;;
7545;SDS011;3814;51.454;12.616;2023-05-09T02:27:14;10.90;;;6.03;;
7545;SDS011;3814;51.454;12.616;2023-05-09T02:29:42;11.48;;;6.45;;
7545;SDS011;3814;51.454;12.616;2023-05-09T02:32:11;14.23;;;6.75;;
7545;SDS011;3814;51.454;12.616;2023-05-09T02:34:40;14.73;;;6.53;;
7545;SDS011;3814;51.454;12.616;2023-05-09T02:37:06;13.27;;;6.82;;
7545;SDS011;3814;51.454;12.616;2023-05-09T02:39:31;11.50;;;6.13;;
7545;SDS011;3814;51.454;12.616;2023-05-09T02:42:03;13.52;;;6.57;;
7545;SDS011;3814;51.454;12.616;2023-05-09T02:44:32;11.95;;;6.03;;
7545;SDS011;3814;51.454;12.616;2023-05-09T02:46:58;11.45;;;6.43;;
7545;SDS011;3814;51.454;12.616;2023-05-09T02:49:24;11.07;;;6.07;;
7545;SDS011;3814;51.454;12.616;2023-05-09T02:51:49;11.70;;;6.20;;
7545;SDS011;3814;51.454;12.616;2023-05-09T02:54:14;13.15;;;6.38;;
7545;SDS011;3814;51.454;12.616;2023-05-09T02:56:40;12.45;;;6.43;;
7545;SDS011;3814;51.454;12.616;2023-05-09T02:59:05;11.70;;;6.50;;
7545;SDS011;3814;51.454;12.616;2023-05-09T03:01:31;14.40;;;6.47;;
7545;SDS011;3814;51.454;12.616;2023-05-09T03:03:56;13.75;;;6.90;;
7545;SDS011;3814;51.454;12.616;2023-05-09T03:06:22;12.65;;;6.53;;
7545;SDS011;3814;51.454;12.616;2023-05-09T03:08:47;12.32;;;5.97;;
7545;SDS011;3814;51.454;12.616;2023-05-09T03:11:12;12.30;;;6.57;;
7545;SDS011;3814;51.454;12.616;2023-05-09T03:13:38;12.57;;;6.38;;
7545;SDS011;3814;51.454;12.616;2023-05-09T03:16:03;11.30;;;6.30;;
7545;SDS011;3814;51.454;12.616;2023-05-09T03:18:29;16.48;;;6.47;;
7545;SDS011;3814;51.454;12.616;2023-05-09T03:20:54;12.63;;;6.25;;
7545;SDS011;3814;51.454;12.616;2023-05-09T03:23:19;13.88;;;6.82;;
7545;SDS011;3814;51.454;12.616;2023-05-09T03:25:45;10.88;;;5.45;;
7545;SDS011;3814;51.454;12.616;2023-05-09T03:28:10;10.30;;;6.10;;
7545;SDS011;3814;51.454;12.616;2023-05-09T03:30:35;12.90;;;6.57;;
7545;SDS011;3814;51.454;12.616;2023-05-09T03:33:00;10.73;;;6.13;;
7545;SDS011;3814;51.454;12.616;2023-05-09T03:35:26;11.32;;;6.30;;
7545;SDS011;3814;51.454;12.616;2023-05-09T03:37:51;10.95;;;6.13;;
7545;SDS011;3814;51.454;12.616;2023-05-09T03:40:16;14.23;;;6.45;;
7545;SDS011;3814;51.454;12.616;2023-05-09T03:42:42;12.23;;;6.43;;
7545;SDS011;3814;51.454;12.616;2023-05-09T03:45:07;10.25;;;5.32;;
7545;SDS011;3814;51.454;12.616;2023-05-09T03:47:33;13.65;;;6.22;;
7545;SDS011;3814;51.454;12.616;2023-05-09T03:49:58;10.70;;;5.93;;
7545;SDS011;3814;51.454;12.616;2023-05-09T03:52:24;10.45;;;6.18;;
7545;SDS011;3814;51.454;12.616;2023-05-09T03:54:49;11.60;;;6.25;;
7545;SDS011;3814;51.454;12.616;2023-05-09T03:57:14;11.20;;;5.47;;
7545;SDS011;3814;51.454;12.616;2023-05-09T03:59:40;12.75;;;6.88;;
7545;SDS011;3814;51.454;12.616;2023-05-09T04:02:05;11.40;;;6.22;;
7545;SDS011;3814;51.454;12.616;2023-05-09T04:04:30;12.73;;;6.25;;
7545;SDS011;3814;51.454;12.616;2023-05-09T04:06:56;12.48;;;6.40;;
7545;SDS011;3814;51.454;12.616;2023-05-09T04:09:21;13.45;;;5.93;;
7545;SDS011;3814;51.454;12.616;2023-05-09T04:11:46;13.65;;;6.45;;
7545;SDS011;3814;51.454;12.616;2023-05-09T04:14:11;10.70;;;5.68;;
7545;SDS011;3814;51.454;12.616;2023-05-09T04:16:37;10.73;;;5.40;;
7545;SDS011;3814;51.454;12.616;2023-05-09T04:19:02;11.63;;;6.38;;
7545;SDS011;3814;51.454;12.616;2023-05-09T04:21:27;11.63;;;5.65;;
7545;SDS011;3814;51.454;12.616;2023-05-09T04:23:53;11.95;;;5.60;;
7545;SDS011;3814;51.454;12.616;2023-05-09T04:26:18;12.45;;;6.35;;
7545;SDS011;3814;51.454;12.616;2023-05-09T04:28:45;12.05;;;5.78;;
7545;SDS011;3814;51.454;12.616;2023-05-09T04:31:10;11.98;;;5.88;;
7545;SDS011;3814;51.454;12.616;2023-05-09T04:33:36;11.02;;;5.65;;
7545;SDS011;3814;51.454;12.616;2023-05-09T04:36:03;13.55;;;5.85;;
7545;SDS011;3814;51.454;12.616;2023-05-09T04:38:28;12.00;;;6.03;;
7545;SDS011;3814;51.454;12.616;2023-05-09T04:40:53;13.45;;;6.00;;
7545;SDS011;3814;51.454;12.616;2023-05-09T04:43:19;11.35;;;5.78;;
7545;SDS011;3814;51.454;12.616;2023-05-09T04:45:44;12.70;;;5.72;;
7545;SDS011;3814;51.454;12.616;2023-05-09T04:48:10;13.23;;;6.20;;
7545;SDS011;3814;51.454;12.616;2023-05-09T04:50:35;10.20;;;5.72;;
7545;SDS011;3814;51.454;12.616;2023-05-09T04:53:01;11.25;;;6.03;;
7545;SDS011;3814;51.454;12.616;2023-05-09T04:55:26;9.93;;;5.43;;
7545;SDS011;3814;51.454;12.616;2023-05-09T04:57:51;9.00;;;4.78;;
7545;SDS011;3814;51.454;12.616;2023-05-09T05:00:16;10.07;;;5.43;;
7545;SDS011;3814;51.454;12.616;2023-05-09T05:02:43;9.65;;;5.03;;
7545;SDS011;3814;51.454;12.616;2023-05-09T05:05:08;8.55;;;4.85;;
7545;SDS011;3814;51.454;12.616;2023-05-09T05:07:33;10.07;;;5.13;;
7545;SDS011;3814;51.454;12.616;2023-05-09T05:09:59;9.02;;;5.10;;
7545;SDS011;3814;51.454;12.616;2023-05-09T05:12:24;9.13;;;5.45;;
7545;SDS011;3814;51.454;12.616;2023-05-09T05:14:49;9.50;;;5.30;;
7545;SDS011;3814;51.454;12.616;2023-05-09T05:17:14;9.77;;;5.10;;
7545;SDS011;3814;51.454;12.616;2023-05-09T05:19:42;10.75;;;5.30;;
7545;SDS011;3814;51.454;12.616;2023-05-09T05:22:07;9.10;;;5.25;;
7545;SDS011;3814;51.454;12.616;2023-05-09T05:24:32;12.60;;;5.20;;
7545;SDS011;3814;51.454;12.616;2023-05-09T05:26:57;9.57;;;4.80;;
7545;SDS011;3814;51.454;12.616;2023-05-09T05:29:23;8.77;;;5.20;;
7545;SDS011;3814;51.454;12.616;2023-05-09T05:31:48;9.27;;;5.32;;
7545;SDS011;3814;51.454;12.616;2023-05-09T05:34:13;6.93;;;4.35;;
7545;SDS011;3814;51.454;12.616;2023-05-09T05:36:40;7.68;;;4.68;;
7545;SDS011;3814;51.454;12.616;2023-05-09T05:39:05;10.18;;;4.80;;
7545;SDS011;3814;51.454;12.616;2023-05-09T05:41:31;9.55;;;5.07;;
7545;SDS011;3814;51.454;12.616;2023-05-09T05:43:56;9.43;;;4.63;;
7545;SDS011;3814;51.454;12.616;2023-05-09T05:46:21;10.25;;;5.20;;
7545;SDS011;3814;51.454;12.616;2023-05-09T05:48:47;9.95;;;4.95;;
7545;SDS011;3814;51.454;12.616;2023-05-09T05:51:12;7.00;;;3.97;;
7545;SDS011;3814;51.454;12.616;2023-05-09T05:53:37;10.88;;;4.40;;
7545;SDS011;3814;51.454;12.616;2023-05-09T05:56:02;8.10;;;4.60;;
7545;SDS011;3814;51.454;12.616;2023-05-09T05:58:28;9.65;;;4.60;;
7545;SDS011;3814;51.454;12.616;2023-05-09T06:00:53;8.93;;;4.65;;
7545;SDS011;3814;51.454;12.616;2023-05-09T06:03:18;8.18;;;4.68;;
7545;SDS011;3814;51.454;12.616;2023-05-09T06:05:44;9.43;;;4.50;;
7545;SDS011;3814;51.454;12.616;2023-05-09T06:08:10;8.40;;;4.47;;
7545;SDS011;3814;51.454;12.616;2023-05-09T06:10:36;7.75;;;4.22;;
7545;SDS011;3814;51.454;12.616;2023-05-09T06:13:01;6.13;;;4.00;;
7545;SDS011;3814;51.454;12.616;2023-05-09T06:15:26;8.50;;;4.55;;
7545;SDS011;3814;51.454;12.616;2023-05-09T06:17:52;10.20;;;4.45;;
7545;SDS011;3814;51.454;12.616;2023-05-09T06:20:17;7.68;;;3.95;;
7545;SDS011;3814;51.454;12.616;2023-05-09T06:22:43;7.47;;;3.97;;
7545;SDS011;3814;51.454;12.616;2023-05-09T06:25:08;6.65;;;3.75;;
7545;SDS011;3814;51.454;12.616;2023-05-09T06:27:34;6.85;;;3.72;;
7545;SDS011;3814;51.454;12.616;2023-05-09T06:29:59;9.50;;;3.90;;
7545;SDS011;3814;51.454;12.616;2023-05-09T06:32:24;7.18;;;3.97;;
7545;SDS011;3814;51.454;12.616;2023-05-09T06:34:50;5.57;;;3.63;;
7545;SDS011;3814;51.454;12.616;2023-05-09T06:37:15;6.57;;;3.70;;
7545;SDS011;3814;51.454;12.616;2023-05-09T06:39:40;7.50;;;3.72;;
7545;SDS011;3814;51.454;12.616;2023-05-09T06:42:05;8.60;;;3.85;;
7545;SDS011;3814;51.454;12.616;2023-05-09T06:44:31;7.82;;;3.92;;
7545;SDS011;3814;51.454;12.616;2023-05-09T06:46:56;8.82;;;3.97;;
7545;SDS011;3814;51.454;12.616;2023-05-09T06:49:22;8.15;;;3.92;;
7545;SDS011;3814;51.454;12.616;2023-05-09T06:51:47;6.32;;;3.58;;
7545;SDS011;3814;51.454;12.616;2023-05-09T06:54:12;8.48;;;3.95;;
7545;SDS011;3814;51.454;12.616;2023-05-09T06:56:38;7.35;;;4.25;;
7545;SDS011;3814;51.454;12.616;2023-05-09T06:59:03;9.63;;;3.92;;
7545;SDS011;3814;51.454;12.616;2023-05-09T07:01:28;6.45;;;3.92;;
7545;SDS011;3814;51.454;12.616;2023-05-09T07:03:54;8.10;;;3.85;;
7545;SDS011;3814;51.454;12.616;2023-05-09T07:06:19;9.20;;;4.10;;
7545;SDS011;3814;51.454;12.616;2023-05-09T07:08:44;9.75;;;3.85;;
7545;SDS011;3814;51.454;12.616;2023-05-09T07:11:09;6.93;;;4.20;;
7545;SDS011;3814;51.454;12.616;2023-05-09T07:13:35;9.65;;;3.95;;
7545;SDS011;3814;51.454;12.616;2023-05-09T07:16:00;6.28;;;3.85;;
7545;SDS011;3814;51.454;12.616;2023-05-09T07:18:25;5.47;;;3.75;;
7545;SDS011;3814;51.454;12.616;2023-05-09T07:20:51;6.20;;;3.75;;
7545;SDS011;3814;51.454;12.616;2023-05-09T07:23:16;8.05;;;4.18;;
7545;SDS011;3814;51.454;12.616;2023-05-09T07:25:41;6.82;;;4.00;;
7545;SDS011;3814;51.454;12.616;2023-05-09T07:28:09;6.75;;;3.67;;
7545;SDS011;3814;51.454;12.616;2023-05-09T07:30:36;7.75;;;4.13;;
7545;SDS011;3814;51.454;12.616;2023-05-09T07:33:01;6.40;;;3.90;;
7545;SDS011;3814;51.454;12.616;2023-05-09T07:35:26;6.57;;;3.90;;
7545;SDS011;3814;51.454;12.616;2023-05-09T07:37:52;6.22;;;3.55;;
7545;SDS011;3814;51.454;12.616;2023-05-09T07:40:17;7.15;;;3.92;;
7545;SDS011;3814;51.454;12.616;2023-05-09T07:42:42;8.80;;;3.95;;
7545;SDS011;3814;51.454;12.616;2023-05-09T07:45:13;6.45;;;3.60;;
7545;SDS011;3814;51.454;12.616;2023-05-09T07:47:41;9.93;;;3.63;;
7545;SDS011;3814;51.454;12.616;2023-05-09T07:50:07;7.43;;;3.97;;
7545;SDS011;3814;51.454;12.616;2023-05-09T07:52:32;8.95;;;3.90;;
7545;SDS011;3814;51.454;12.616;2023-05-09T07:54:57;7.35;;;4.07;;
7545;SDS011;3814;51.454;12.616;2023-05-09T07:57:23;7.18;;;3.80;;
7545;SDS011;3814;51.454;12.616;2023-05-09T07:59:48;8.45;;;3.58;;
7545;SDS011;3814;51.454;12.616;2023-05-09T08:02:13;8.45;;;4.10;;
7545;SDS011;3814;51.454;12.616;2023-05-09T08:04:39;7.47;;;3.72;;
7545;SDS011;3814;51.454;12.616;2023-05-09T08:07:05;8.35;;;4.00;;
7545;SDS011;3814;51.454;12.616;2023-05-09T08:09:31;8.60;;;3.80;;
7545;SDS011;3814;51.454;12.616;2023-05-09T08:11:56;8.00;;;3.72;;
7545;SDS011;3814;51.454;12.616;2023-05-09T08:14:22;8.40;;;3.67;;
7545;SDS011;3814;51.454;12.616;2023-05-09T08:16:47;5.82;;;3.63;;
7545;SDS011;3814;51.454;12.616;2023-05-09T08:19:12;7.22;;;3.60;;
7545;SDS011;3814;51.454;12.616;2023-05-09T08:21:38;8.02;;;3.67;;
7545;SDS011;3814;51.454;12.616;2023-05-09T08:24:03;6.18;;;3.92;;
7545;SDS011;3814;51.454;12.616;2023-05-09T08:26:31;6.40;;;3.85;;
7545;SDS011;3814;51.454;12.616;2023-05-09T08:28:57;6.03;;;3.13;;
7545;SDS011;3814;51.454;12.616;2023-05-09T08:31:22;9.77;;;4.00;;
7545;SDS011;3814;51.454;12.616;2023-05-09T08:33:47;5.40;;;3.42;;
7545;SDS011;3814;51.454;12.616;2023-05-09T08:36:13;6.20;;;3.80;;
7545;SDS011;3814;51.454;12.616;2023-05-09T08:38:38;8.82;;;3.90;;
7545;SDS011;3814;51.454;12.616;2023-05-09T08:41:04;6.38;;;3.67;;
7545;SDS011;3814;51.454;12.616;2023-05-09T08:43:29;6.00;;;3.72;;
7545;SDS011;3814;51.454;12.616;2023-05-09T08:45:57;5.43;;;3.50;;
7545;SDS011;3814;51.454;12.616;2023-05-09T08:48:24;5.63;;;3.53;;
7545;SDS011;3814;51.454;12.616;2023-05-09T08:50:50;5.82;;;3.60;;
7545;SDS011;3814;51.454;12.616;2023-05-09T08:53:16;6.45;;;3.70;;
7545;SDS011;3814;51.454;12.616;2023-05-09T08:55:41;6.38;;;3.40;;
7545;SDS011;3814;51.454;12.616;2023-05-09T08:58:07;5.00;;;3.60;;
7545;SDS011;3814;51.454;12.616;2023-05-09T09:00:33;4.57;;;3.33;;
7545;SDS011;3814;51.454;12.616;2023-05-09T09:03:01;6.85;;;3.70;;
7545;SDS011;3814;51.454;12.616;2023-05-09T09:05:29;6.55;;;3.58;;
7545;SDS011;3814;51.454;12.616;2023-05-09T09:07:55;7.15;;;4.00;;
7545;SDS011;3814;51.454;12.616;2023-05-09T09:10:21;7.13;;;3.58;;
7545;SDS011;3814;51.454;12.616;2023-05-09T09:12:50;5.32;;;3.55;;
7545;SDS011;3814;51.454;12.616;2023-05-09T09:15:16;6.15;;;3.70;;
7545;SDS011;3814;51.454;12.616;2023-05-09T09:17:42;5.47;;;3.53;;
7545;SDS011;3814;51.454;12.616;2023-05-09T09:20:10;6.30;;;3.17;;
7545;SDS011;3814;51.454;12.616;2023-05-09T09:22:37;6.10;;;3.40;;
7545;SDS011;3814;51.454;12.616;2023-05-09T09:25:04;8.45;;;3.40;;
7545;SDS011;3814;51.454;12.616;2023-05-09T09:27:30;6.78;;;3.47;;
7545;SDS011;3814;51.454;12.616;2023-05-09T09:30:05;8.50;;;3.22;;
7545;SDS011;3814;51.454;12.616;2023-05-09T09:32:33;6.05;;;3.38;;
7545;SDS011;3814;51.454;12.616;2023-05-09T09:35:03;6.82;;;3.30;;
7545;SDS011;3814;51.454;12.616;2023-05-09T09:37:35;8.02;;;3.20;;
7545;SDS011;3814;51.454;12.616;2023-05-09T09:40:01;7.10;;;3.92;;
7545;SDS011;3814;51.454;12.616;2023-05-09T09:42:32;6.28;;;3.50;;
7545;SDS011;3814;51.454;12.616;2023-05-09T09:45:13;5.55;;;3.50;;
7545;SDS011;3814;51.454;12.616;2023-05-09T09:47:39;6.38;;;3.15;;
7545;SDS011;3814;51.454;12.616;2023-05-09T09:50:10;5.03;;;3.13;;
7545;SDS011;3814;51.454;12.616;2023-05-09T09:52:40;7.72;;;3.28;;
7545;SDS011;3814;51.454;12.616;2023-05-09T09:55:07;5.97;;;2.85;;
7545;SDS011;3814;51.454;12.616;2023-05-09T09:57:33;7.47;;;3.30;;
7545;SDS011;3814;51.454;12.616;2023-05-09T10:00:05;5.53;;;3.30;;
7545;SDS011;3814;51.454;12.616;2023-05-09T10:02:31;4.75;;;3.20;;
7545;SDS011;3814;51.454;12.616;2023-05-09T10:05:04;7.05;;;3.28;;
7545;SDS011;3814;51.454;12.616;2023-05-09T10:07:33;4.07;;;3.22;;
7545;SDS011;3814;51.454;12.616;2023-05-09T10:09:59;8.48;;;3.47;;
7545;SDS011;3814;51.454;12.616;2023-05-09T10:12:29;7.13;;;3.25;;
7545;SDS011;3814;51.454;12.616;2023-05-09T10:14:58;7.85;;;2.88;;
7545;SDS011;3814;51.454;12.616;2023-05-09T10:17:23;6.32;;;3.63;;
7545;SDS011;3814;51.454;12.616;2023-05-09T10:19:51;7.95;;;3.33;;
7545;SDS011;3814;51.454;12.616;2023-05-09T10:22:17;5.60;;;3.22;;
7545;SDS011;3814;51.454;12.616;2023-05-09T10:24:46;6.18;;;2.92;;
7545;SDS011;3814;51.454;12.616;2023-05-09T10:27:24;5.25;;;2.92;;
7545;SDS011;3814;51.454;12.616;2023-05-09T10:29:56;7.32;;;2.97;;
7545;SDS011;3814;51.454;12.616;2023-05-09T10:32:53;8.98;;;3.70;;
7545;SDS011;3814;51.454;12.616;2023-05-09T10:35:25;8.45;;;3.13;;
7545;SDS011;3814;51.454;12.616;2023-05-09T10:37:54;6.85;;;3.35;;
7545;SDS011;3814;51.454;12.616;2023-05-09T10:40:20;5.63;;;3.00;;
7545;SDS011;3814;51.454;12.616;2023-05-09T10:42:46;6.93;;;3.20;;
7545;SDS011;3814;51.454;12.616;2023-05-09T10:45:11;6.10;;;3.08;;
7545;SDS011;3814;51.454;12.616;2023-05-09T10:47:39;7.53;;;3.25;;
7545;SDS011;3814;51.454;12.616;2023-05-09T10:50:09;6.97;;;3.42;;
7545;SDS011;3814;51.454;12.616;2023-05-09T10:55:34;7.65;;;3.53;;
7545;SDS011;3814;51.454;12.616;2023-05-09T11:01:00;4.47;;;3.17;;
7545;SDS011;3814;51.454;12.616;2023-05-09T11:03:27;5.57;;;3.20;;
7545;SDS011;3814;51.454;12.616;2023-05-09T11:05:54;7.88;;;3.67;;
7545;SDS011;3814;51.454;12.616;2023-05-09T11:10:50;6.28;;;3.60;;
7545;SDS011;3814;51.454;12.616;2023-05-09T11:13:22;6.47;;;3.55;;
7545;SDS011;3814;51.454;12.616;2023-05-09T11:18:22;6.65;;;3.50;;
7545;SDS011;3814;51.454;12.616;2023-05-09T11:20:48;7.15;;;3.40;;
7545;SDS011;3814;51.454;12.616;2023-05-09T11:23:20;6.00;;;3.35;;
7545;SDS011;3814;51.454;12.616;2023-05-09T11:25:46;8.38;;;3.30;;
7545;SDS011;3814;51.454;12.616;2023-05-09T11:28:26;5.97;;;3.20;;
7545;SDS011;3814;51.454;12.616;2023-05-09T11:33:39;5.47;;;3.17;;
7545;SDS011;3814;51.454;12.616;2023-05-09T11:36:15;8.65;;;3.40;;
7545;SDS011;3814;51.454;12.616;2023-05-09T11:39:01;8.02;;;3.50;;
7545;SDS011;3814;51.454;12.616;2023-05-09T11:41:30;4.70;;;3.03;;
7545;SDS011;3814;51.454;12.616;2023-05-09T11:44:03;5.35;;;3.28;;
7545;SDS011;3814;51.454;12.616;2023-05-09T11:46:34;5.03;;;3.22;;
7545;SDS011;3814;51.454;12.616;2023-05-09T11:49:00;6.32;;;3.17;;
7545;SDS011;3814;51.454;12.616;2023-05-09T11:51:27;6.93;;;3.45;;
7545;SDS011;3814;51.454;12.616;2023-05-09T11:53:52;6.93;;;3.42;;
7545;SDS011;3814;51.454;12.616;2023-05-09T11:56:18;5.80;;;3.15;;
7545;SDS011;3814;51.454;12.616;2023-05-09T11:58:44;8.68;;;3.28;;
7545;SDS011;3814;51.454;12.616;2023-05-09T12:01:10;7.55;;;3.20;;
7545;SDS011;3814;51.454;12.616;2023-05-09T12:03:41;7.13;;;3.17;;
7545;SDS011;3814;51.454;12.616;2023-05-09T12:06:13;6.28;;;3.20;;
7545;SDS011;3814;51.454;12.616;2023-05-09T12:08:40;7.65;;;3.50;;
7545;SDS011;3814;51.454;12.616;2023-05-09T12:11:08;5.57;;;3.30;;
7545;SDS011;3814;51.454;12.616;2023-05-09T12:13:34;7.85;;;3.33;;
7545;SDS011;3814;51.454;12.616;2023-05-09T12:16:00;6.57;;;3.22;;
7545;SDS011;3814;51.454;12.616;2023-05-09T12:18:26;4.47;;;3.22;;
7545;SDS011;3814;51.454;12.616;2023-05-09T12:20:51;5.80;;;3.08;;
7545;SDS011;3814;51.454;12.616;2023-05-09T12:23:17;5.35;;;3.22;;
7545;SDS011;3814;51.454;12.616;2023-05-09T12:25:46;5.45;;;2.92;;
7545;SDS011;3814;51.454;12.616;2023-05-09T12:28:12;5.10;;;3.33;;
7545;SDS011;3814;51.454;12.616;2023-05-09T12:30:37;4.88;;;2.75;;
7545;SDS011;3814;51.454;12.616;2023-05-09T12:33:03;6.30;;;2.90;;
7545;SDS011;3814;51.454;12.616;2023-05-09T12:35:28;4.93;;;2.88;;
7545;SDS011;3814;51.454;12.616;2023-05-09T12:37:57;4.30;;;2.70;;
7545;SDS011;3814;51.454;12.616;2023-05-09T12:40:22;5.70;;;2.90;;
7545;SDS011;3814;51.454;12.616;2023-05-09T12:42:48;9.38;;;2.80;;
7545;SDS011;3814;51.454;12.616;2023-05-09T12:45:13;5.25;;;2.70;;
7545;SDS011;3814;51.454;12.616;2023-05-09T12:47:39;6.20;;;2.90;;
7545;SDS011;3814;51.454;12.616;2023-05-09T12:50:05;4.88;;;2.78;;
7545;SDS011;3814;51.454;12.616;2023-05-09T12:52:32;8.43;;;2.83;;
7545;SDS011;3814;51.454;12.616;2023-05-09T12:55:03;7.20;;;2.80;;
7545;SDS011;3814;51.454;12.616;2023-05-09T12:57:29;4.50;;;2.95;;
7545;SDS011;3814;51.454;12.616;2023-05-09T12:59:58;6.90;;;3.20;;
7545;SDS011;3814;51.454;12.616;2023-05-09T13:02:24;6.35;;;3.00;;
7545;SDS011;3814;51.454;12.616;2023-05-09T13:05:03;6.38;;;2.80;;
7545;SDS011;3814;51.454;12.616;2023-05-09T13:07:37;7.10;;;3.08;;
7545;SDS011;3814;51.454;12.616;2023-05-09T13:10:15;6.50;;;2.55;;
7545;SDS011;3814;51.454;12.616;2023-05-09T13:12:49;4.72;;;2.85;;
7545;SDS011;3814;51.454;12.616;2023-05-09T13:15:15;4.13;;;2.53;;
7545;SDS011;3814;51.454;12.616;2023-05-09T13:17:43;4.53;;;2.80;;
7545;SDS011;3814;51.454;12.616;2023-05-09T13:20:10;6.53;;;2.88;;
7545;SDS011;3814;51.454;12.616;2023-05-09T13:22:35;5.00;;;2.35;;
7545;SDS011;3814;51.454;12.616;2023-05-09T13:25:01;7.05;;;2.85;;
7545;SDS011;3814;51.454;12.616;2023-05-09T13:27:26;6.38;;;3.35;;
7545;SDS011;3814;51.454;12.616;2023-05-09T13:29:52;5.75;;;2.60;;
7545;SDS011;3814;51.454;12.616;2023-05-09T13:32:17;6.65;;;3.22;;
7545;SDS011;3814;51.454;12.616;2023-05-09T13:34:43;8.80;;;2.97;;
7545;SDS011;3814;51.454;12.616;2023-05-09T13:37:08;6.97;;;2.70;;
7545;SDS011;3814;51.454;12.616;2023-05-09T13:39:33;3.38;;;2.33;;
7545;SDS011;3814;51.454;12.616;2023-05-09T13:41:59;5.20;;;2.85;;
7545;SDS011;3814;51.454;12.616;2023-05-09T13:44:25;4.70;;;2.88;;
7545;SDS011;3814;51.454;12.616;2023-05-09T13:46:50;5.40;;;2.75;;
7545;SDS011;3814;51.454;12.616;2023-05-09T13:49:15;6.05;;;2.50;;
7545;SDS011;3814;51.454;12.616;2023-05-09T13:51:41;3.80;;;2.20;;
7545;SDS011;3814;51.454;12.616;2023-05-09T13:54:06;3.90;;;2.28;;
7545;SDS011;3814;51.454;12.616;2023-05-09T13:56:37;6.65;;;2.50;;
7545;SDS011;3814;51.454;12.616;2023-05-09T13:59:04;5.75;;;2.55;;
7545;SDS011;3814;51.454;12.616;2023-05-09T14:01:29;7.35;;;3.60;;
7545;SDS011;3814;51.454;12.616;2023-05-09T14:03:55;5.97;;;2.72;;
7545;SDS011;3814;51.454;12.616;2023-05-09T14:06:20;4.25;;;2.90;;
7545;SDS011;3814;51.454;12.616;2023-05-09T14:08:46;4.25;;;2.47;;
7545;SDS011;3814;51.454;12.616;2023-05-09T14:11:11;6.35;;;2.40;;
7545;SDS011;3814;51.454;12.616;2023-05-09T14:13:36;4.78;;;2.47;;
7545;SDS011;3814;51.454;12.616;2023-05-09T14:16:02;5.45;;;2.53;;
7545;SDS011;3814;51.454;12.616;2023-05-09T14:18:28;6.10;;;2.60;;
7545;SDS011;3814;51.454;12.616;2023-05-09T14:20:54;6.53;;;2.92;;
7545;SDS011;3814;51.454;12.616;2023-05-09T14:23:19;5.18;;;2.47;;
7545;SDS011;3814;51.454;12.616;2023-05-09T14:25:44;6.32;;;2.42;;
7545;SDS011;3814;51.454;12.616;2023-05-09T14:28:10;4.40;;;2.33;;
7545;SDS011;3814;51.454;12.616;2023-05-09T14:30:35;8.32;;;2.58;;
7545;SDS011;3814;51.454;12.616;2023-05-09T14:33:01;3.17;;;2.08;;
7545;SDS011;3814;51.454;12.616;2023-05-09T14:35:26;5.93;;;2.45;;
7545;SDS011;3814;51.454;12.616;2023-05-09T14:37:52;8.27;;;2.28;;
7545;SDS011;3814;51.454;12.616;2023-05-09T14:40:17;4.28;;;2.13;;
7545;SDS011;3814;51.454;12.616;2023-05-09T14:42:45;5.28;;;2.08;;
7545;SDS011;3814;51.454;12.616;2023-05-09T14:45:11;3.90;;;2.20;;
7545;SDS011;3814;51.454;12.616;2023-05-09T14:47:39;7.95;;;1.88;;
7545;SDS011;3814;51.454;12.616;2023-05-09T14:50:05;4.82;;;2.00;;
7545;SDS011;3814;51.454;12.616;2023-05-09T14:52:31;4.45;;;2.10;;
7545;SDS011;3814;51.454;12.616;2023-05-09T14:54:56;6.38;;;1.90;;
7545;SDS011;3814;51.454;12.616;2023-05-09T14:57:23;4.55;;;2.00;;
7545;SDS011;3814;51.454;12.616;2023-05-09T14:59:48;4.15;;;1.88;;
7545;SDS011;3814;51.454;12.616;2023-05-09T15:02:14;3.78;;;2.10;;
7545;SDS011;3814;51.454;12.616;2023-05-09T15:04:39;5.55;;;2.10;;
7545;SDS011;3814;51.454;12.616;2023-05-09T15:07:07;3.95;;;2.10;;
7545;SDS011;3814;51.454;12.616;2023-05-09T15:09:32;4.35;;;1.88;;
7545;SDS011;3814;51.454;12.616;2023-05-09T15:11:58;4.70;;;2.00;;
7545;SDS011;3814;51.454;12.616;2023-05-09T15:14:23;5.60;;;2.25;;